Main page
METAR-TAF:

METAR-TAF

Airports :

Riverton Regional Airport

Riverton, Wyoming, United States

latitude: 43-03-43N, longitude: 108-26-47W, elevation: 5524 ft

Current weather observation

The report was made 25 minutes ago, at 06:53 UTC
Wind 8 mph from the South/Southwest
Temperature 36°F
Humidity 87%
Pressure 30.03 in. Hg
Visibility: 10 miles
Clear sky

METAR: KRIW 240653Z AUTO 20007KT 10SM CLR 02/00 A3003 RMK AO2 SLP164 T00170000 401170017

Time: 01:18 (07:18 UTC)

Forecast

The report was made 1 hour and 58 minutes ago, at 05:20 UTC
Forecast valid from 24 at 06 UTC to 25 at 06 UTC
Wind 7 mph from variable directions
Visibility: 6 miles
Scattered clouds at a height of 8000 ft
From 24 at 1800 UTC
Wind 12 mph from the West
Visibility: 6 miles
Few clouds at a height of 8000 ft

TAF: KRIW 240520Z 2406/2506 VRB06KT P6SM SCT080 FM241800 28010KT P6SM FEW080

Weather observations and forecasts of more than 4000 airports (METAR and TAF reports).

The available stations are represented by yellow and red dots on the map.

Hover mouse over dot to see the name of the station.

Then click to see weather observations and forecasts.

To change the map : click on the green buttons with a black cross to zoom in, on the green button with a dash to zoom out, or on the green arrows for adjacent maps.


METAR-TAF: